Terminal Aerodrome Forecast
Issued by NWS

Current Version | Previous Version | Text Only | Print | Product List | Glossary On
Versions: 1 2 3 4 5 6 7 8 9 10 11 12 13 14 15 16 17 18 19 20 21 22 23 24 25 26 27 28 29 30 31 32
000
FTUS41 KRLX 290537
TAFCKB
TAF
KCKB 290537Z 2906/3006 00000KT 6SM BR OVC004
      TEMPO 2906/2909 1SM BR SCT002 BKN012
     FM290900 00000KT 1/2SM FG OVC001
     FM291300 00000KT 3/4SM BR BKN001
     FM291400 00000KT 4SM BR BKN008
     FM291700 28004KT P6SM SCT025
     FM292300 00000KT P6SM BKN050
     FM300400 00000KT 5SM BR BKN050=

USA.gov is the U.S. government's official web portal to all federal, state and local government web resources and services.